Terminal Aerodrome Forecast
Issued by NWS Cleveland, OH

Home | Current Version | Previous Version | Text Only | Print | Product List | Glossary On
Versions: 1 2 3 4 5 6 7 8 9 10 11 12 13 14 15 16
000
FTUS41 KCLE 261700 CCA
TAFERI
TAF COR
KERI 261741Z 2618/2718 02010KT P6SM SCT050
     FM262000 34008KT P6SM BKN050
     FM270400 30004KT P6SM SCT025 OVC050
     FM270600 30004KT P6SM VCSH SCT008 OVC018=

USA.gov is the U.S. government's official web portal to all federal, state and local government web resources and services.